Time;durP1;ratioP1;P1;durP2;ratioP2;P2;SDS_P1;SDS_P2;PMS_P1;PMS_P2;Temp;Humidity;BMP_temperature;BMP_pressure;BME280_temperature;BME280_humidity;BME280_pressure;Samples;Min_cycle;Max_cycle;Signal;HPM_P1;HPM_P2
2023/04/28 00:02:00;;;;;;;3.33;2.92;;;7.40;56.70;;;;;;5073953;28;20205;-60
2023/04/28 00:04:27;;;;;;;3.83;2.60;;;7.40;56.70;;;;;;5073761;28;20568;-59
2023/04/28 00:06:56;;;;;;;5.15;3.10;;;7.40;56.70;;;;;;5073276;28;20204;-61
2023/04/28 00:09:23;;;;;;;3.70;3.40;;;7.40;56.70;;;;;;5073031;28;20225;-60
2023/04/28 00:11:49;;;;;;;7.45;3.65;;;7.50;56.80;;;;;;5073147;28;20197;-62
2023/04/28 00:14:16;;;;;;;3.80;2.90;;;7.50;56.80;;;;;;5073102;28;20596;-61
2023/04/28 00:16:43;;;;;;;5.30;2.85;;;7.50;56.70;;;;;;5073014;28;20217;-60
2023/04/28 00:19:10;;;;;;;3.65;3.05;;;7.50;56.80;;;;;;5072941;28;20224;-60
2023/04/28 00:21:36;;;;;;;5.25;2.90;;;7.50;56.70;;;;;;5073082;28;20200;-60
2023/04/28 00:24:05;;;;;;;3.42;2.58;;;7.60;56.80;;;;;;5072395;28;20572;-62
2023/04/28 00:26:32;;;;;;;4.32;3.40;;;7.60;57.50;;;;;;5073766;28;20204;-60
2023/04/28 00:28:59;;;;;;;4.70;3.10;;;7.60;57.00;;;;;;5077123;28;20769;-62
2023/04/28 00:31:26;;;;;;;4.47;3.40;;;7.60;57.00;;;;;;5077283;28;20678;-60
2023/04/28 00:33:52;;;;;;;10.85;4.82;;;7.60;57.00;;;;;;5078819;28;20287;-61
2023/04/28 00:36:19;;;;;;;10.02;3.22;;;7.60;57.00;;;;;;5077212;28;20220;-60
2023/04/28 00:38:46;;;;;;;6.28;3.25;;;7.60;57.10;;;;;;5076782;28;20205;-61
2023/04/28 00:41:14;;;;;;;4.22;3.30;;;7.70;57.10;;;;;;5076514;28;20213;-60
2023/04/28 00:43:45;;;;;;;8.73;4.10;;;7.70;57.10;;;;;;5077020;28;20200;-60
2023/04/28 00:46:19;;;;;;;7.00;3.20;;;7.70;57.20;;;;;;5076677;28;20193;-61
2023/04/28 00:48:46;;;;;;;6.20;2.65;;;7.70;57.20;;;;;;5076280;28;20204;-61
2023/04/28 00:51:13;;;;;;;4.32;3.22;;;7.70;57.30;;;;;;5076301;28;20662;-60
2023/04/28 00:53:40;;;;;;;5.72;3.20;;;7.70;57.30;;;;;;5076651;28;20201;-61
2023/04/28 00:56:08;;;;;;;5.68;3.72;;;7.70;57.30;;;;;;5077089;28;20614;-60
2023/04/28 00:58:37;;;;;;;4.35;3.05;;;7.70;57.90;;;;;;5076483;28;20204;-61
2023/04/28 01:01:04;;;;;;;4.53;3.40;;;7.70;57.40;;;;;;5076627;28;20205;-60
2023/04/28 01:03:31;;;;;;;4.82;3.40;;;7.70;57.50;;;;;;5076115;28;20569;-60
2023/04/28 01:05:59;;;;;;;5.93;3.30;;;7.70;57.50;;;;;;5076469;28;20197;-61
2023/04/28 01:08:29;;;;;;;5.82;4.03;;;7.70;57.50;;;;;;5076771;28;20212;-60
2023/04/28 01:10:56;;;;;;;6.22;3.75;;;7.70;57.60;;;;;;5076884;28;20225;-60
2023/04/28 01:13:23;;;;;;;4.97;3.08;;;7.70;57.60;;;;;;5076470;28;20291;-61
2023/04/28 01:15:51;;;;;;;5.85;3.60;;;7.70;57.70;;;;;;5076624;28;20565;-61
2023/04/28 01:18:18;;;;;;;4.55;3.63;;;7.70;57.70;;;;;;5076492;28;20206;-59
2023/04/28 01:20:45;;;;;;;4.50;3.80;;;7.70;57.80;;;;;;5076568;28;20221;-61
2023/04/28 01:23:12;;;;;;;5.35;4.00;;;7.70;57.90;;;;;;5076549;28;20227;-60
2023/04/28 01:25:40;;;;;;;7.20;3.42;;;7.70;57.90;;;;;;5076340;28;20204;-61
2023/04/28 01:28:07;;;;;;;6.40;3.95;;;7.70;58.00;;;;;;5075800;28;20201;-60
2023/04/28 01:30:35;;;;;;;4.50;3.60;;;7.70;58.00;;;;;;5075942;28;20228;-60
2023/04/28 01:33:02;;;;;;;5.72;4.28;;;7.70;58.10;;;;;;5076149;28;20208;-60
2023/04/28 01:35:29;;;;;;;3.47;3.17;;;7.70;58.10;;;;;;5076628;28;20201;-62
2023/04/28 01:37:55;;;;;;;5.80;3.85;;;7.70;58.20;;;;;;5075244;28;20315;-62
2023/04/28 01:40:22;;;;;;;5.55;3.92;;;7.70;58.20;;;;;;5075725;28;20224;-61
2023/04/28 01:42:50;;;;;;;9.38;4.20;;;7.70;58.30;;;;;;5076014;28;20197;-62
2023/04/28 01:45:17;;;;;;;4.65;3.85;;;7.70;58.40;;;;;;5076302;28;20212;-60
2023/04/28 01:47:44;;;;;;;4.50;3.70;;;7.70;58.50;;;;;;5075565;28;20201;-62
2023/04/28 01:50:11;;;;;;;8.50;3.83;;;7.70;58.50;;;;;;5074995;28;20229;-61
2023/04/28 01:52:38;;;;;;;4.40;3.55;;;7.70;58.60;;;;;;5075639;28;20207;-61
2023/04/28 01:55:05;;;;;;;5.63;4.10;;;7.70;58.60;;;;;;5076053;28;20208;-61
2023/04/28 01:57:34;;;;;;;6.75;3.45;;;7.70;58.60;;;;;;5075589;28;20220;-61
2023/04/28 02:00:02;;;;;;;5.50;3.85;;;7.70;58.70;;;;;;5075181;28;20687;-61
2023/04/28 02:02:29;;;;;;;5.40;3.97;;;7.70;58.70;;;;;;5075004;28;20201;-61
2023/04/28 02:04:56;;;;;;;6.75;3.63;;;7.70;58.80;;;;;;5075318;28;20201;-61
2023/04/28 02:07:23;;;;;;;6.63;3.83;;;7.70;58.80;;;;;;5075002;28;20207;-61
2023/04/28 02:09:50;;;;;;;6.38;3.90;;;7.70;58.90;;;;;;5075192;28;20221;-61
2023/04/28 02:12:17;;;;;;;6.40;3.95;;;7.70;59.00;;;;;;5075402;28;20201;-61
2023/04/28 02:14:44;;;;;;;5.22;3.90;;;7.70;59.00;;;;;;5075843;28;20205;-61
2023/04/28 02:17:12;;;;;;;6.35;3.75;;;7.60;59.00;;;;;;5075790;28;20212;-61
2023/04/28 02:19:39;;;;;;;4.50;3.80;;;7.60;59.20;;;;;;5076474;28;20225;-62
2023/04/28 02:22:06;;;;;;;5.95;3.65;;;7.60;59.30;;;;;;5077121;28;20292;-61
2023/04/28 02:24:35;;;;;;;7.18;3.60;;;7.60;59.90;;;;;;5076758;28;20201;-62
2023/04/28 02:27:03;;;;;;;5.10;3.78;;;7.50;59.40;;;;;;5076945;28;20338;-62
2023/04/28 02:29:30;;;;;;;5.45;3.95;;;7.50;59.60;;;;;;5076760;28;20263;-62
2023/04/28 02:31:57;;;;;;;6.25;3.85;;;7.50;59.70;;;;;;5076406;28;20201;-61
2023/04/28 02:34:25;;;;;;;8.48;4.00;;;7.50;59.90;;;;;;5076819;28;20232;-60
2023/04/28 02:36:52;;;;;;;6.18;3.80;;;7.50;60.00;;;;;;5076540;28;20243;-61
2023/04/28 02:39:20;;;;;;;8.48;4.10;;;7.40;60.00;;;;;;5075424;28;20246;-59
2023/04/28 02:41:47;;;;;;;5.00;3.95;;;7.40;60.20;;;;;;5074605;28;20301;-62
2023/04/28 02:44:14;;;;;;;6.63;4.28;;;7.40;60.30;;;;;;5075413;28;20270;-62
2023/04/28 02:46:41;;;;;;;4.40;3.60;;;7.40;60.30;;;;;;5074092;28;20193;-60
2023/04/28 02:49:07;;;;;;;5.85;3.65;;;7.40;60.40;;;;;;5074204;28;20236;-61
2023/04/28 02:51:35;;;;;;;9.68;3.65;;;7.40;60.40;;;;;;5073322;28;20569;-62
2023/04/28 02:54:02;;;;;;;5.13;3.55;;;7.40;60.40;;;;;;5074233;28;20213;-61
2023/04/28 02:56:29;;;;;;;8.18;4.07;;;7.40;60.60;;;;;;5074006;28;20230;-62
2023/04/28 02:58:56;;;;;;;7.10;3.75;;;7.40;60.70;;;;;;5074301;28;20224;-62
2023/04/28 03:01:23;;;;;;;5.90;3.90;;;7.40;60.80;;;;;;5074184;28;20252;-62
2023/04/28 03:03:50;;;;;;;5.70;4.15;;;7.40;60.90;;;;;;5073882;28;20704;-62
2023/04/28 03:06:17;;;;;;;4.50;3.90;;;7.40;61.10;;;;;;5073984;28;20212;-62
2023/04/28 03:08:45;;;;;;;4.80;3.75;;;7.40;61.10;;;;;;5073976;28;20193;-62
2023/04/28 03:11:12;;;;;;;6.30;4.15;;;7.40;61.40;;;;;;5073832;28;20224;-63
2023/04/28 03:13:38;;;;;;;6.85;4.80;;;7.30;61.30;;;;;;5074122;28;20197;-62
2023/04/28 03:16:06;;;;;;;4.90;3.42;;;7.30;61.50;;;;;;5073970;28;20205;-61
2023/04/28 03:18:33;;;;;;;5.97;3.90;;;7.30;61.70;;;;;;5073738;28;20221;-62
2023/04/28 03:21:00;;;;;;;4.85;3.80;;;7.30;61.80;;;;;;5073794;28;20228;-62
2023/04/28 03:23:27;;;;;;;7.53;3.60;;;7.30;62.00;;;;;;5074351;28;20287;-61
2023/04/28 03:25:55;;;;;;;5.47;4.05;;;7.30;62.20;;;;;;5074306;28;20200;-63
2023/04/28 03:28:22;;;;;;;8.20;4.80;;;7.20;62.30;;;;;;5074664;28;20198;-61
2023/04/28 03:30:48;;;;;;;4.78;4.05;;;7.20;62.50;;;;;;5073510;28;20225;-61
2023/04/28 03:33:15;;;;;;;9.00;4.55;;;7.20;62.70;;;;;;5073657;28;20205;-62
2023/04/28 03:35:42;;;;;;;6.75;4.40;;;7.20;63.00;;;;;;5073676;28;20204;-62
2023/04/28 03:38:09;;;;;;;6.47;4.00;;;7.10;63.20;;;;;;5073491;28;20278;-62
2023/04/28 03:40:35;;;;;;;6.15;4.50;;;7.10;63.40;;;;;;5073461;28;20611;-62
2023/04/28 03:43:04;;;;;;;5.28;3.55;;;7.10;63.60;;;;;;5073553;28;20212;-63
2023/04/28 03:45:30;;;;;;;6.10;4.47;;;7.10;63.90;;;;;;5073334;28;20685;-62
2023/04/28 03:47:57;;;;;;;4.80;3.75;;;7.10;64.10;;;;;;5073342;28;20219;-62
2023/04/28 03:50:24;;;;;;;8.32;4.47;;;7.10;64.10;;;;;;5073058;28;20229;-62
2023/04/28 03:52:51;;;;;;;3.85;3.55;;;7.10;64.30;;;;;;5073332;28;20204;-62
2023/04/28 03:55:17;;;;;;;4.93;4.07;;;7.10;64.50;;;;;;5072878;28;20207;-62
2023/04/28 03:57:44;;;;;;;4.72;3.88;;;7.10;64.70;;;;;;5073171;28;20221;-64
2023/04/28 04:00:13;;;;;;;5.50;3.85;;;7.10;64.80;;;;;;5072883;28;20598;-59
2023/04/28 04:02:40;;;;;;;4.68;3.50;;;7.10;65.00;;;;;;5072639;28;20698;-62
2023/04/28 04:05:08;;;;;;;4.45;3.90;;;7.10;65.30;;;;;;5072940;28;20196;-62
2023/04/28 04:07:34;;;;;;;6.95;4.47;;;7.10;65.50;;;;;;5073377;28;20574;-62
2023/04/28 04:11:36;;;;;;;7.63;4.70;;;7.00;65.20;;;;;;5111270;27;1253703;-63
2023/04/28 04:14:02;;;;;;;4.85;3.75;;;7.10;65.80;;;;;;5131819;28;20202;-63
2023/04/28 04:16:29;;;;;;;6.10;5.00;;;7.10;65.80;;;;;;5131986;28;20249;-62
2023/04/28 04:18:56;;;;;;;7.78;4.30;;;7.10;65.90;;;;;;5128141;28;20215;-62
2023/04/28 04:21:23;;;;;;;9.48;5.10;;;7.10;66.10;;;;;;5111020;28;20198;-63
2023/04/28 04:23:50;;;;;;;6.03;3.97;;;7.20;66.20;;;;;;5110892;28;20206;-63
2023/04/28 04:26:16;;;;;;;6.65;4.50;;;7.20;66.20;;;;;;5110659;28;20272;-63
2023/04/28 04:28:44;;;;;;;7.45;4.70;;;7.20;66.20;;;;;;5110920;28;20199;-62
2023/04/28 04:31:11;;;;;;;6.90;4.50;;;7.20;66.10;;;;;;5110606;28;20657;-63
2023/04/28 04:33:38;;;;;;;6.20;5.20;;;7.30;66.10;;;;;;5110547;28;20257;-64
2023/04/28 04:36:06;;;;;;;5.00;4.15;;;7.40;66.20;;;;;;5110692;28;20206;-63
2023/04/28 04:38:35;;;;;;;5.55;3.70;;;7.40;66.00;;;;;;5110754;28;20203;-63
2023/04/28 04:41:02;;;;;;;5.00;3.92;;;7.40;65.90;;;;;;5110565;28;20199;-63
2023/04/28 04:43:29;;;;;;;8.00;4.55;;;7.50;65.80;;;;;;5110507;28;20204;-63
2023/04/28 04:45:57;;;;;;;6.93;4.32;;;7.50;65.60;;;;;;5110314;28;20207;-63
2023/04/28 04:48:24;;;;;;;7.38;4.38;;;7.60;65.50;;;;;;5110088;28;20569;-63
2023/04/28 04:50:50;;;;;;;8.05;5.50;;;7.60;65.30;;;;;;5110387;28;20227;-62
2023/04/28 04:53:17;;;;;;;9.07;5.07;;;7.80;65.30;;;;;;5110922;28;20574;-64
2023/04/28 04:55:44;;;;;;;6.40;4.57;;;7.80;64.90;;;;;;5110602;28;20662;-62
2023/04/28 04:58:11;;;;;;;4.70;4.22;;;7.80;64.60;;;;;;5111562;28;20208;-62
2023/04/28 05:00:38;;;;;;;5.35;4.57;;;7.90;64.50;;;;;;5118193;28;20219;-61
2023/04/28 05:03:07;;;;;;;11.80;4.60;;;8.00;64.50;;;;;;5113550;28;20199;-63
2023/04/28 05:05:34;;;;;;;6.45;5.25;;;8.00;64.30;;;;;;5119265;28;20204;-60
2023/04/28 05:08:01;;;;;;;5.32;4.47;;;8.00;64.10;;;;;;5118287;28;20203;-62
2023/04/28 05:10:28;;;;;;;7.55;4.78;;;8.00;64.00;;;;;;5110961;28;20223;-62
2023/04/28 05:12:55;;;;;;;6.43;4.43;;;8.10;64.00;;;;;;5110808;28;20289;-62
2023/04/28 05:15:21;;;;;;;6.63;5.22;;;8.10;63.70;;;;;;5110389;28;20204;-60
2023/04/28 05:17:48;;;;;;;5.32;4.43;;;8.20;63.50;;;;;;5110304;28;20207;-62
2023/04/28 05:20:16;;;;;;;7.00;4.60;;;8.20;63.20;;;;;;5110193;28;20216;-62
2023/04/28 05:22:43;;;;;;;7.50;5.00;;;8.30;63.10;;;;;;5098992;28;20197;-61
2023/04/28 05:25:10;;;;;;;8.30;4.60;;;8.30;63.00;;;;;;5096725;28;20211;-60
2023/04/28 05:27:38;;;;;;;6.68;4.80;;;8.30;62.80;;;;;;5096266;28;20207;-62
2023/04/28 05:30:06;;;;;;;8.88;4.55;;;8.40;62.50;;;;;;5096621;28;20560;-61
2023/04/28 05:32:34;;;;;;;7.40;5.53;;;8.50;62.40;;;;;;5096089;28;20201;-61
2023/04/28 05:35:01;;;;;;;7.40;4.75;;;8.50;62.20;;;;;;5098812;28;20200;-61
2023/04/28 05:37:29;;;;;;;7.35;4.50;;;8.60;61.80;;;;;;5097650;28;20611;-61
2023/04/28 05:39:56;;;;;;;8.25;4.22;;;8.60;61.60;;;;;;5095919;28;20212;-61
2023/04/28 05:42:22;;;;;;;5.45;4.95;;;8.70;61.40;;;;;;5096082;28;20581;-61
2023/04/28 05:44:49;;;;;;;7.25;4.90;;;8.70;61.20;;;;;;5095795;28;20215;-62
2023/04/28 05:47:16;;;;;;;7.25;4.85;;;8.80;61.10;;;;;;5095590;28;20569;-61
2023/04/28 05:49:43;;;;;;;6.85;4.90;;;8.80;60.80;;;;;;5096325;28;20220;-60
2023/04/28 05:52:10;;;;;;;5.28;4.72;;;8.90;60.50;;;;;;5096035;28;20210;-60
2023/04/28 05:55:19;;;;;;;9.20;5.65;;;9.00;60.40;;;;;;5096637;28;20200;-62
2023/04/28 05:57:46;;;;;;;7.22;5.10;;;9.10;60.10;;;;;;5096024;28;20196;-60
2023/04/28 06:00:14;;;;;;;6.75;4.80;;;9.20;59.90;;;;;;5095792;28;20259;-60
2023/04/28 06:02:41;;;;;;;10.35;5.40;;;9.30;59.60;;;;;;5095400;28;20215;-62
2023/04/28 06:05:09;;;;;;;5.32;4.10;;;9.30;59.30;;;;;;5095554;28;20271;-60
2023/04/28 06:07:36;;;;;;;8.37;4.70;;;9.40;59.10;;;;;;5095486;28;20755;-62
2023/04/28 06:10:05;;;;;;;7.30;5.40;;;9.50;58.90;;;;;;5095462;28;20486;-61
2023/04/28 06:12:32;;;;;;;6.25;4.70;;;9.60;58.90;;;;;;5095659;28;20200;-60
2023/04/28 06:14:58;;;;;;;6.70;4.77;;;9.70;58.70;;;;;;5096718;28;20205;-62
2023/04/28 06:17:25;;;;;;;6.68;5.18;;;9.80;58.30;;;;;;5096044;28;20450;-61
2023/04/28 06:19:53;;;;;;;8.45;5.60;;;9.90;58.10;;;;;;5096692;28;20224;-61
2023/04/28 06:22:20;;;;;;;8.02;5.55;;;10.00;57.00;;;;;;5097791;28;20200;-60
2023/04/28 06:24:47;;;;;;;7.27;5.00;;;10.10;56.70;;;;;;5097690;28;20205;-60
2023/04/28 06:27:15;;;;;;;7.90;5.50;;;10.20;56.50;;;;;;5099712;28;20449;-60
2023/04/28 06:29:41;;;;;;;6.83;5.93;;;10.30;56.30;;;;;;5101166;28;20461;-59
2023/04/28 06:32:08;;;;;;;7.03;5.30;;;10.40;56.00;;;;;;5102251;28;20482;-60
2023/04/28 06:34:35;;;;;;;7.70;5.33;;;10.50;56.00;;;;;;5103224;28;20442;-59
2023/04/28 06:37:02;;;;;;;8.83;5.50;;;10.60;55.80;;;;;;5104165;28;20458;-60
2023/04/28 06:39:43;;;;;;;10.50;5.80;;;10.60;55.60;;;;;;5104194;28;20967;-64
2023/04/28 06:42:10;;;;;;;7.13;6.10;;;10.70;55.40;;;;;;5098893;28;20870;-61
2023/04/28 06:44:38;;;;;;;8.27;5.70;;;10.80;55.30;;;;;;5098022;28;20438;-60
2023/04/28 06:47:05;;;;;;;6.10;5.47;;;11.00;55.00;;;;;;5095500;28;20438;-60
2023/04/28 06:49:32;;;;;;;6.47;5.03;;;11.10;54.70;;;;;;5095131;28;20473;-62
2023/04/28 06:51:59;;;;;;;6.40;5.47;;;11.30;54.60;;;;;;5094913;28;20477;-61
2023/04/28 06:54:25;;;;;;;6.33;5.23;;;11.40;54.20;;;;;;5095251;28;20477;-61
2023/04/28 06:56:52;;;;;;;6.47;5.57;;;11.60;54.00;;;;;;5094579;28;20442;-60
2023/04/28 06:59:25;;;;;;;8.10;5.43;;;11.70;53.60;;;;;;5096723;28;20635;-60
2023/04/28 07:01:53;;;;;;;6.23;5.57;;;11.90;53.20;;;;;;5095922;28;20439;-60
2023/04/28 07:04:20;;;;;;;9.10;5.87;;;12.10;53.00;;;;;;5095254;28;20449;-60
2023/04/28 07:06:46;;;;;;;7.70;5.70;;;12.30;52.60;;;;;;5094376;28;20965;-63
2023/04/28 07:09:14;;;;;;;9.73;6.57;;;12.40;52.20;;;;;;5094280;28;20471;-61
2023/04/28 07:11:41;;;;;;;7.93;6.03;;;12.40;52.00;;;;;;5094152;28;20469;-61
2023/04/28 07:14:08;;;;;;;8.80;5.80;;;12.60;51.70;;;;;;5094925;28;20521;-61
2023/04/28 07:16:35;;;;;;;8.93;5.13;;;12.60;51.40;;;;;;5095367;28;20443;-60
2023/04/28 07:19:03;;;;;;;9.33;5.97;;;12.80;51.10;;;;;;5095582;28;20466;-61
2023/04/28 07:21:30;;;;;;;8.47;6.00;;;12.80;50.70;;;;;;5094187;28;20449;-61
2023/04/28 07:23:57;;;;;;;9.40;5.97;;;12.90;50.50;;;;;;5094568;28;20446;-61
2023/04/28 07:26:23;;;;;;;6.80;6.10;;;13.00;50.30;;;;;;5094832;28;20442;-61
2023/04/28 07:28:50;;;;;;;8.30;5.47;;;13.10;50.00;;;;;;5093794;28;20442;-59
2023/04/28 07:31:17;;;;;;;8.50;5.77;;;13.20;49.80;;;;;;5093775;28;20523;-61
2023/04/28 07:33:44;;;;;;;8.10;6.47;;;13.20;49.60;;;;;;5093813;28;20450;-61
2023/04/28 07:36:12;;;;;;;7.37;6.40;;;13.30;49.40;;;;;;5121073;22;20491;-60
2023/04/28 07:38:39;;;;;;;10.50;6.17;;;13.30;49.40;;;;;;5074358;28;20432;-60
2023/04/28 07:41:06;;;;;;;8.47;6.50;;;13.30;49.30;;;;;;5074052;28;20439;-60
2023/04/28 07:43:33;;;;;;;9.27;6.80;;;13.50;49.40;;;;;;5073872;28;20521;-59
2023/04/28 07:45:59;;;;;;;13.47;6.50;;;13.70;49.10;;;;;;5077138;28;20489;-59
2023/04/28 07:48:26;;;;;;;10.50;7.17;;;13.90;48.70;;;;;;5094015;28;20438;-60
2023/04/28 07:50:53;;;;;;;8.10;6.57;;;14.00;48.40;;;;;;5094180;28;20523;-60
2023/04/28 07:53:21;;;;;;;7.17;6.40;;;14.20;48.20;;;;;;5095570;28;20805;-60
2023/04/28 07:55:48;;;;;;;8.83;6.60;;;14.20;47.80;;;;;;5094297;28;20951;-62
2023/04/28 07:58:15;;;;;;;11.80;7.07;;;14.30;47.80;;;;;;5094768;28;20815;-60
2023/04/28 08:00:42;;;;;;;10.80;6.20;;;14.30;47.70;;;;;;5094322;28;20533;-60
2023/04/28 08:03:09;;;;;;;10.77;6.90;;;14.40;47.70;;;;;;5094837;28;20462;-59
2023/04/28 08:05:35;;;;;;;9.70;6.90;;;14.50;47.50;;;;;;5093912;28;20449;-60
2023/04/28 08:08:02;;;;;;;9.43;7.60;;;14.70;47.30;;;;;;5094827;28;20446;-57
2023/04/28 08:10:30;;;;;;;23.03;8.00;;;14.80;47.00;;;;;;5094525;28;20466;-61
2023/04/28 08:12:58;;;;;;;8.17;6.70;;;14.80;46.80;;;;;;5094246;28;20545;-60
2023/04/28 08:15:26;;;;;;;10.00;7.10;;;14.70;46.70;;;;;;5094426;28;20457;-60
2023/04/28 08:17:53;;;;;;;9.50;7.60;;;14.70;46.80;;;;;;5094280;28;20482;-59
2023/04/28 08:20:20;;;;;;;10.07;8.83;;;14.70;46.70;;;;;;5094180;28;20445;-60
2023/04/28 08:22:46;;;;;;;13.13;7.30;;;14.60;46.70;;;;;;5094063;28;20453;-59
2023/04/28 08:25:13;;;;;;;8.33;7.20;;;14.50;46.80;;;;;;5094346;28;20438;-60
2023/04/28 08:27:42;;;;;;;8.97;7.60;;;14.60;46.90;;;;;;5093773;28;20461;-59
2023/04/28 08:30:09;;;;;;;8.50;7.60;;;14.70;46.80;;;;;;5094073;28;20446;-61
2023/04/28 08:32:36;;;;;;;10.73;7.57;;;14.70;47.10;;;;;;5094104;28;20478;-60
2023/04/28 08:35:03;;;;;;;9.77;7.43;;;14.80;46.50;;;;;;5093783;28;20814;-60
2023/04/28 08:37:30;;;;;;;9.37;7.87;;;14.80;46.30;;;;;;5093728;28;20547;-60
2023/04/28 08:40:01;;;;;;;9.23;7.60;;;14.80;46.20;;;;;;5093771;28;20499;-57
2023/04/28 08:42:29;;;;;;;8.13;7.33;;;14.80;46.20;;;;;;5093830;28;20522;-60
2023/04/28 08:44:58;;;;;;;10.83;8.03;;;14.90;46.30;;;;;;5093741;28;20446;-62
2023/04/28 08:47:32;;;;;;;13.40;7.73;;;15.00;46.30;;;;;;5094682;28;20466;-62
2023/04/28 08:50:03;;;;;;;12.30;8.03;;;15.10;46.20;;;;;;5094160;28;20454;-61
2023/04/28 08:52:30;;;;;;;9.00;7.43;;;15.30;45.90;;;;;;5093969;28;20474;-62
2023/04/28 08:54:59;;;;;;;10.00;6.80;;;15.30;45.70;;;;;;5094744;28;20468;-59
2023/04/28 08:57:27;;;;;;;9.10;7.53;;;15.40;45.70;;;;;;5097475;28;20486;-60
2023/04/28 08:59:55;;;;;;;8.70;7.37;;;15.50;45.50;;;;;;5098983;28;20442;-61
2023/04/28 09:02:23;;;;;;;11.03;7.80;;;15.60;45.30;;;;;;5097623;28;20451;-65
2023/04/28 09:04:50;;;;;;;9.40;7.73;;;15.60;45.20;;;;;;5097879;28;20499;-60
2023/04/28 09:07:17;;;;;;;8.00;6.67;;;15.80;45.10;;;;;;5097515;28;20466;-60
2023/04/28 09:09:44;;;;;;;9.80;7.30;;;15.90;44.80;;;;;;5097820;28;20827;-61
2023/04/28 09:12:11;;;;;;;13.47;8.40;;;16.10;44.70;;;;;;5097342;28;20478;-60
2023/04/28 09:14:39;;;;;;;11.63;8.40;;;16.20;44.40;;;;;;5096859;28;20794;-61
2023/04/28 09:17:10;;;;;;;10.37;8.10;;;16.10;44.40;;;;;;5097789;28;20458;-58
2023/04/28 09:19:41;;;;;;;10.70;8.17;;;16.10;44.50;;;;;;5096613;28;20904;-63
2023/04/28 09:22:09;;;;;;;10.90;7.63;;;15.90;44.50;;;;;;5097167;28;20442;-60
2023/04/28 09:24:38;;;;;;;13.73;8.67;;;15.80;44.80;;;;;;5097453;28;20499;-61
2023/04/28 09:27:09;;;;;;;8.20;7.40;;;15.70;44.90;;;;;;5097281;28;20813;-61
2023/04/28 09:29:37;;;;;;;10.10;7.17;;;15.50;45.20;;;;;;5097442;28;20467;-61
2023/04/28 09:32:14;;;;;;;13.63;8.40;;;15.50;45.40;;;;;;5097144;28;20535;-60
2023/04/28 09:34:46;;;;;;;13.73;8.60;;;15.40;45.40;;;;;;5098112;28;20514;-59
2023/04/28 09:37:17;;;;;;;10.20;8.57;;;15.30;45.60;;;;;;5096772;28;20478;-60
2023/04/28 09:39:44;;;;;;;8.70;7.63;;;15.40;45.80;;;;;;5097303;28;21022;-61
2023/04/28 09:42:30;;;;;;;13.93;8.70;;;15.40;45.80;;;;;;5097846;28;20439;-63
2023/04/28 09:44:57;;;;;;;10.63;8.20;;;15.60;45.90;;;;;;5098016;28;20433;-62
2023/04/28 09:47:24;;;;;;;9.10;7.90;;;15.70;45.70;;;;;;5096878;28;20454;-62
2023/04/28 09:49:56;;;;;;;8.60;7.50;;;15.60;45.70;;;;;;5097066;28;20940;-61
2023/04/28 09:52:23;;;;;;;9.77;8.10;;;15.60;45.80;;;;;;5097284;28;20493;-59
2023/04/28 09:54:51;;;;;;;13.73;7.90;;;15.70;45.80;;;;;;5098491;28;20435;-60
2023/04/28 09:57:18;;;;;;;9.90;7.93;;;15.80;45.80;;;;;;5099955;28;20470;-59
2023/04/28 09:59:48;;;;;;;11.13;8.10;;;16.00;45.70;;;;;;5103219;28;20434;-59
2023/04/28 10:02:16;;;;;;;12.50;7.90;;;16.20;45.50;;;;;;5102180;28;20441;-59
2023/04/28 10:04:44;;;;;;;12.90;10.67;;;16.30;45.50;;;;;;5102951;28;20485;-60
2023/04/28 10:07:13;;;;;;;11.73;8.93;;;16.30;45.30;;;;;;5103442;28;20467;-59
2023/04/28 10:09:42;;;;;;;12.13;8.23;;;16.30;45.50;;;;;;5102809;28;20454;-61
2023/04/28 10:12:10;;;;;;;9.80;8.17;;;16.20;45.60;;;;;;5100199;28;20514;-62
2023/04/28 10:14:37;;;;;;;13.00;8.30;;;16.00;45.80;;;;;;5098736;28;20462;-62
2023/04/28 10:17:05;;;;;;;10.50;8.27;;;15.90;46.00;;;;;;5097971;28;20482;-63
2023/04/28 10:19:32;;;;;;;10.50;7.43;;;15.80;46.30;;;;;;5098915;28;20447;-61
2023/04/28 10:22:10;;;;;;;13.00;8.93;;;15.80;46.60;;;;;;5096874;28;20442;-61
2023/04/28 10:24:58;;;;;;;11.53;8.73;;;15.80;46.80;;;;;;5096762;28;20912;-61
2023/04/28 10:27:30;;;;;;;10.60;7.67;;;15.80;46.80;;;;;;5097081;28;20500;-61
2023/04/28 10:30:10;;;;;;;9.17;7.50;;;15.90;46.90;;;;;;5097014;28;20433;-62
2023/04/28 10:32:37;;;;;;;10.00;8.27;;;16.00;46.80;;;;;;5096844;28;20520;-62
2023/04/28 10:35:41;;;;;;;11.40;8.90;;;16.10;46.80;;;;;;5096227;28;20442;-63
2023/04/28 10:38:11;;;;;;;10.00;8.10;;;16.30;46.60;;;;;;5095990;28;20539;-59
2023/04/28 10:40:40;;;;;;;9.00;8.10;;;16.40;46.40;;;;;;5096481;28;20481;-62
2023/04/28 10:43:08;;;;;;;12.97;9.13;;;16.40;46.40;;;;;;5096162;28;20449;-59
2023/04/28 10:46:05;;;;;;;10.27;8.40;;;16.50;46.50;;;;;;5096022;28;20442;-62
2023/04/28 10:48:57;;;;;;;11.20;8.83;;;16.70;46.60;;;;;;5095651;28;20470;-61
2023/04/28 10:51:31;;;;;;;12.73;8.13;;;16.90;46.60;;;;;;5096410;28;20534;-61
2023/04/28 10:54:22;;;;;;;10.37;8.27;;;17.20;46.60;;;;;;5095386;28;20922;-60
2023/04/28 10:57:16;;;;;;;11.10;7.73;;;17.40;46.50;;;;;;5077010;28;20477;-60
2023/04/28 10:59:43;;;;;;;9.77;7.73;;;17.70;46.60;;;;;;5096157;28;20537;-60
2023/04/28 11:02:35;;;;;;;16.83;8.60;;;17.80;46.50;;;;;;5096109;28;20443;-61
2023/04/28 11:05:17;;;;;;;10.07;9.00;;;17.80;46.50;;;;;;5097925;28;20438;-61
2023/04/28 11:08:36;;;;;;;13.80;8.80;;;17.80;46.50;;;;;;5096863;28;20461;-61
2023/04/28 11:11:13;;;;;;;9.83;8.37;;;17.90;46.40;;;;;;5095976;28;20513;-61
2023/04/28 11:13:41;;;;;;;8.87;7.80;;;18.20;46.00;;;;;;5095366;28;20462;-60
2023/04/28 11:16:08;;;;;;;8.30;7.47;;;18.30;45.60;;;;;;5095378;28;20477;-61
2023/04/28 11:19:03;;;;;;;9.30;8.40;;;18.30;45.70;;;;;;5095102;28;20446;-62
2023/04/28 11:21:31;;;;;;;9.40;7.83;;;18.30;45.70;;;;;;5095245;28;20477;-60
2023/04/28 11:23:58;;;;;;;8.93;7.93;;;18.40;45.60;;;;;;5095475;28;20450;-61
2023/04/28 11:26:25;;;;;;;7.73;6.80;;;18.40;45.40;;;;;;5095650;28;20462;-59
2023/04/28 11:28:55;;;;;;;10.83;7.80;;;18.40;45.60;;;;;;5096337;28;20481;-60
2023/04/28 11:31:24;;;;;;;10.20;8.33;;;18.30;45.90;;;;;;5095878;28;20443;-62
2023/04/28 11:33:55;;;;;;;11.47;8.10;;;18.20;45.90;;;;;;5095308;28;20438;-60
2023/04/28 11:36:27;;;;;;;14.93;9.07;;;18.10;46.00;;;;;;5096805;28;20547;-60
2023/04/28 11:38:55;;;;;;;10.43;8.60;;;17.90;46.00;;;;;;5098272;28;20449;-61
2023/04/28 11:41:22;;;;;;;10.63;9.13;;;17.90;46.10;;;;;;5099423;28;20499;-59
2023/04/28 11:43:49;;;;;;;9.40;8.00;;;17.80;46.00;;;;;;5099200;28;20447;-62
2023/04/28 11:46:21;;;;;;;11.37;8.57;;;17.80;46.70;;;;;;5098738;28;20470;-60
2023/04/28 11:48:50;;;;;;;10.23;8.77;;;17.80;46.00;;;;;;5098860;28;20442;-60
2023/04/28 11:51:31;;;;;;;10.80;9.43;;;17.60;46.10;;;;;;5096173;28;20853;-62
2023/04/28 11:53:58;;;;;;;8.93;8.03;;;17.60;46.30;;;;;;5095979;28;20526;-60
2023/04/28 11:56:25;;;;;;;8.77;7.43;;;17.60;46.40;;;;;;5095202;28;20450;-61
2023/04/28 11:59:07;;;;;;;10.33;8.90;;;17.40;46.50;;;;;;5095642;28;20499;-61
2023/04/28 12:01:43;;;;;;;11.90;9.10;;;17.30;46.70;;;;;;5095662;28;20541;-60
2023/04/28 12:04:11;;;;;;;12.97;9.00;;;17.20;47.00;;;;;;5095686;28;20426;-60
2023/04/28 12:06:38;;;;;;;12.40;8.43;;;17.10;47.10;;;;;;5095080;28;20466;-59
2023/04/28 12:09:15;;;;;;;10.20;8.07;;;17.10;47.20;;;;;;5095626;28;20442;-60
2023/04/28 12:11:52;;;;;;;12.37;9.00;;;17.10;47.30;;;;;;5094775;28;20426;-60
2023/04/28 12:14:19;;;;;;;9.83;8.83;;;17.20;47.90;;;;;;5095440;28;20442;-60
2023/04/28 12:16:49;;;;;;;9.77;8.20;;;17.10;48.70;;;;;;5095124;28;20505;-61
2023/04/28 12:19:16;;;;;;;10.53;8.57;;;17.00;49.80;;;;;;5095063;28;20918;-63
2023/04/28 12:21:43;;;;;;;11.20;8.87;;;17.00;51.50;;;;;;5095650;28;20962;-60
2023/04/28 12:24:18;;;;;;;12.97;8.37;;;16.90;51.80;;;;;;5095208;28;20446;-59
2023/04/28 12:26:45;;;;;;;9.83;8.30;;;16.90;52.40;;;;;;5094600;28;20466;-59
2023/04/28 12:29:37;;;;;;;11.10;8.80;;;16.80;52.90;;;;;;5095390;28;20450;-62
2023/04/28 12:32:06;;;;;;;13.53;8.60;;;16.60;53.40;;;;;;5097847;28;20422;-60
2023/04/28 12:34:34;;;;;;;12.17;9.03;;;16.50;54.20;;;;;;5100676;28;20816;-61
2023/04/28 12:37:01;;;;;;;11.00;9.63;;;16.40;54.80;;;;;;5098934;28;20484;-60
2023/04/28 12:39:28;;;;;;;14.77;10.87;;;16.50;55.50;;;;;;5099254;28;20445;-60
2023/04/28 12:41:56;;;;;;;12.50;10.23;;;16.70;56.30;;;;;;5099164;28;20469;-60
2023/04/28 12:44:23;;;;;;;11.37;9.87;;;16.80;56.70;;;;;;5099674;28;20434;-60
2023/04/28 12:46:51;;;;;;;13.10;10.87;;;16.90;56.80;;;;;;5100305;28;20477;-60
2023/04/28 12:49:19;;;;;;;11.03;9.93;;;17.00;57.30;;;;;;5100560;28;20464;-60
2023/04/28 12:51:45;;;;;;;13.03;10.13;;;17.00;57.10;;;;;;5100015;28;20447;-60
2023/04/28 12:54:13;;;;;;;10.90;9.77;;;16.80;57.10;;;;;;5099415;28;20488;-60
2023/04/28 12:56:40;;;;;;;12.00;10.90;;;16.60;57.40;;;;;;5098591;28;20848;-60
2023/04/28 12:59:06;;;;;;;11.70;10.50;;;16.30;58.00;;;;;;5099442;28;20452;-60